sensor_id;sensor_type;location;lat;lon;timestamp;P1;durP1;ratioP1;P2;durP2;ratioP2
47790;SDS011;33547;49.044;1.156;2023-03-01T00:00:27;11.50;;;9.00;;
47790;SDS011;33547;49.044;1.156;2023-03-01T00:02:53;11.80;;;10.35;;
47790;SDS011;33547;49.044;1.156;2023-03-01T00:05:18;10.13;;;9.23;;
47790;SDS011;33547;49.044;1.156;2023-03-01T00:07:44;12.05;;;10.48;;
47790;SDS011;33547;49.044;1.156;2023-03-01T00:10:10;11.93;;;10.73;;
47790;SDS011;33547;49.044;1.156;2023-03-01T00:12:36;10.57;;;8.80;;
47790;SDS011;33547;49.044;1.156;2023-03-01T00:15:01;10.07;;;8.98;;
47790;SDS011;33547;49.044;1.156;2023-03-01T00:17:29;10.90;;;9.48;;
47790;SDS011;33547;49.044;1.156;2023-03-01T00:19:55;11.50;;;9.65;;
47790;SDS011;33547;49.044;1.156;2023-03-01T00:22:20;12.20;;;10.43;;
47790;SDS011;33547;49.044;1.156;2023-03-01T00:24:46;13.77;;;9.40;;
47790;SDS011;33547;49.044;1.156;2023-03-01T00:27:12;11.45;;;9.38;;
47790;SDS011;33547;49.044;1.156;2023-03-01T00:29:37;12.27;;;10.27;;
47790;SDS011;33547;49.044;1.156;2023-03-01T00:32:03;11.70;;;10.05;;
47790;SDS011;33547;49.044;1.156;2023-03-01T00:34:29;14.73;;;10.18;;
47790;SDS011;33547;49.044;1.156;2023-03-01T00:36:54;15.30;;;10.70;;
47790;SDS011;33547;49.044;1.156;2023-03-01T00:39:20;12.45;;;10.45;;
47790;SDS011;33547;49.044;1.156;2023-03-01T00:41:46;11.48;;;9.90;;
47790;SDS011;33547;49.044;1.156;2023-03-01T00:44:11;10.23;;;9.13;;
47790;SDS011;33547;49.044;1.156;2023-03-01T00:46:37;10.90;;;9.10;;
47790;SDS011;33547;49.044;1.156;2023-03-01T00:49:03;16.13;;;10.05;;
47790;SDS011;33547;49.044;1.156;2023-03-01T00:51:29;11.48;;;9.57;;
47790;SDS011;33547;49.044;1.156;2023-03-01T00:53:56;10.45;;;9.35;;
47790;SDS011;33547;49.044;1.156;2023-03-01T00:56:24;11.68;;;9.30;;
47790;SDS011;33547;49.044;1.156;2023-03-01T00:58:50;10.77;;;8.88;;
47790;SDS011;33547;49.044;1.156;2023-03-01T01:01:18;11.32;;;10.15;;
47790;SDS011;33547;49.044;1.156;2023-03-01T01:04:00;12.02;;;10.73;;
47790;SDS011;33547;49.044;1.156;2023-03-01T01:06:34;10.05;;;8.98;;
47790;SDS011;33547;49.044;1.156;2023-03-01T01:09:07;14.90;;;11.10;;
47790;SDS011;33547;49.044;1.156;2023-03-01T01:11:34;11.20;;;9.82;;
47790;SDS011;33547;49.044;1.156;2023-03-01T01:14:03;12.60;;;11.30;;
47790;SDS011;33547;49.044;1.156;2023-03-01T01:16:29;14.15;;;10.80;;
47790;SDS011;33547;49.044;1.156;2023-03-01T01:18:55;12.10;;;10.75;;
47790;SDS011;33547;49.044;1.156;2023-03-01T01:21:22;11.57;;;10.32;;
47790;SDS011;33547;49.044;1.156;2023-03-01T01:23:49;10.65;;;9.55;;
47790;SDS011;33547;49.044;1.156;2023-03-01T01:26:19;11.90;;;10.63;;
47790;SDS011;33547;49.044;1.156;2023-03-01T01:28:49;14.13;;;11.15;;
47790;SDS011;33547;49.044;1.156;2023-03-01T01:31:16;12.63;;;10.60;;
47790;SDS011;33547;49.044;1.156;2023-03-01T01:33:43;14.48;;;12.13;;
47790;SDS011;33547;49.044;1.156;2023-03-01T01:36:09;13.10;;;11.80;;
47790;SDS011;33547;49.044;1.156;2023-03-01T01:38:35;13.82;;;12.25;;
47790;SDS011;33547;49.044;1.156;2023-03-01T01:41:02;13.60;;;12.23;;
47790;SDS011;33547;49.044;1.156;2023-03-01T01:43:29;12.30;;;11.10;;
47790;SDS011;33547;49.044;1.156;2023-03-01T01:45:59;12.80;;;11.50;;
47790;SDS011;33547;49.044;1.156;2023-03-01T01:48:32;15.48;;;12.27;;
47790;SDS011;33547;49.044;1.156;2023-03-01T01:51:05;12.48;;;10.93;;
47790;SDS011;33547;49.044;1.156;2023-03-01T01:53:35;18.83;;;11.73;;
47790;SDS011;33547;49.044;1.156;2023-03-01T01:56:03;13.73;;;11.23;;
47790;SDS011;33547;49.044;1.156;2023-03-01T01:58:33;12.20;;;10.85;;
47790;SDS011;33547;49.044;1.156;2023-03-01T02:00:59;12.10;;;10.02;;
47790;SDS011;33547;49.044;1.156;2023-03-01T02:03:27;15.15;;;10.65;;
47790;SDS011;33547;49.044;1.156;2023-03-01T02:08:43;15.80;;;10.07;;
47790;SDS011;33547;49.044;1.156;2023-03-01T02:11:10;12.52;;;9.65;;
47790;SDS011;33547;49.044;1.156;2023-03-01T02:13:39;12.63;;;9.73;;
47790;SDS011;33547;49.044;1.156;2023-03-01T02:16:09;13.00;;;10.43;;
47790;SDS011;33547;49.044;1.156;2023-03-01T02:18:37;10.65;;;9.60;;
47790;SDS011;33547;49.044;1.156;2023-03-01T02:23:48;11.73;;;10.18;;
47790;SDS011;33547;49.044;1.156;2023-03-01T02:26:19;12.80;;;10.30;;
47790;SDS011;33547;49.044;1.156;2023-03-01T02:28:46;12.57;;;10.48;;
47790;SDS011;33547;49.044;1.156;2023-03-01T02:31:16;13.73;;;10.77;;
47790;SDS011;33547;49.044;1.156;2023-03-01T02:34:02;11.63;;;10.43;;
47790;SDS011;33547;49.044;1.156;2023-03-01T02:36:31;12.20;;;10.40;;
47790;SDS011;33547;49.044;1.156;2023-03-01T02:39:18;16.55;;;11.20;;
47790;SDS011;33547;49.044;1.156;2023-03-01T02:41:50;13.35;;;10.55;;
47790;SDS011;33547;49.044;1.156;2023-03-01T02:44:17;11.30;;;10.07;;
47790;SDS011;33547;49.044;1.156;2023-03-01T02:46:52;12.15;;;10.90;;
47790;SDS011;33547;49.044;1.156;2023-03-01T02:49:27;12.55;;;10.60;;
47790;SDS011;33547;49.044;1.156;2023-03-01T02:57:20;15.13;;;13.00;;
47790;SDS011;33547;49.044;1.156;2023-03-01T02:59:47;17.73;;;13.20;;
47790;SDS011;33547;49.044;1.156;2023-03-01T03:02:18;18.88;;;15.68;;
47790;SDS011;33547;49.044;1.156;2023-03-01T03:05:02;25.40;;;18.98;;
47790;SDS011;33547;49.044;1.156;2023-03-01T03:07:28;22.00;;;17.02;;
47790;SDS011;33547;49.044;1.156;2023-03-01T03:09:53;19.88;;;16.15;;
47790;SDS011;33547;49.044;1.156;2023-03-01T03:12:19;19.17;;;15.57;;
47790;SDS011;33547;49.044;1.156;2023-03-01T03:14:44;16.88;;;14.00;;
47790;SDS011;33547;49.044;1.156;2023-03-01T03:17:10;17.10;;;14.05;;
47790;SDS011;33547;49.044;1.156;2023-03-01T03:19:36;16.00;;;13.43;;
47790;SDS011;33547;49.044;1.156;2023-03-01T03:22:01;15.98;;;13.13;;
47790;SDS011;33547;49.044;1.156;2023-03-01T03:24:27;16.35;;;12.98;;
47790;SDS011;33547;49.044;1.156;2023-03-01T03:26:53;18.15;;;13.73;;
47790;SDS011;33547;49.044;1.156;2023-03-01T03:29:19;17.23;;;13.18;;
47790;SDS011;33547;49.044;1.156;2023-03-01T03:31:44;15.52;;;12.65;;
47790;SDS011;33547;49.044;1.156;2023-03-01T03:34:10;15.40;;;12.95;;
47790;SDS011;33547;49.044;1.156;2023-03-01T03:36:42;13.20;;;11.80;;
47790;SDS011;33547;49.044;1.156;2023-03-01T03:39:08;17.42;;;12.93;;
47790;SDS011;33547;49.044;1.156;2023-03-01T03:41:34;15.07;;;11.82;;
47790;SDS011;33547;49.044;1.156;2023-03-01T03:44:00;13.82;;;12.27;;
47790;SDS011;33547;49.044;1.156;2023-03-01T03:46:26;14.70;;;12.65;;
47790;SDS011;33547;49.044;1.156;2023-03-01T03:48:51;18.67;;;12.40;;
47790;SDS011;33547;49.044;1.156;2023-03-01T03:51:17;16.92;;;13.68;;
47790;SDS011;33547;49.044;1.156;2023-03-01T03:53:44;16.20;;;12.77;;
47790;SDS011;33547;49.044;1.156;2023-03-01T03:56:10;14.52;;;12.90;;
47790;SDS011;33547;49.044;1.156;2023-03-01T03:58:37;16.67;;;12.05;;
47790;SDS011;33547;49.044;1.156;2023-03-01T04:01:03;16.75;;;13.23;;
47790;SDS011;33547;49.044;1.156;2023-03-01T04:03:29;15.55;;;12.88;;
47790;SDS011;33547;49.044;1.156;2023-03-01T04:05:57;17.70;;;13.57;;
47790;SDS011;33547;49.044;1.156;2023-03-01T04:08:23;18.83;;;13.45;;
47790;SDS011;33547;49.044;1.156;2023-03-01T04:10:50;18.55;;;13.30;;
47790;SDS011;33547;49.044;1.156;2023-03-01T04:13:18;15.80;;;12.90;;
47790;SDS011;33547;49.044;1.156;2023-03-01T04:15:47;14.23;;;12.65;;
47790;SDS011;33547;49.044;1.156;2023-03-01T04:18:14;14.38;;;12.88;;
47790;SDS011;33547;49.044;1.156;2023-03-01T04:20:41;16.38;;;12.57;;
47790;SDS011;33547;49.044;1.156;2023-03-01T04:23:09;16.98;;;13.02;;
47790;SDS011;33547;49.044;1.156;2023-03-01T04:25:45;14.80;;;13.18;;
47790;SDS011;33547;49.044;1.156;2023-03-01T04:28:21;21.52;;;14.25;;
47790;SDS011;33547;49.044;1.156;2023-03-01T04:30:50;20.40;;;14.25;;
47790;SDS011;33547;49.044;1.156;2023-03-01T04:33:17;20.73;;;14.68;;
47790;SDS011;33547;49.044;1.156;2023-03-01T04:35:43;18.25;;;14.82;;
47790;SDS011;33547;49.044;1.156;2023-03-01T04:38:09;21.17;;;18.02;;
47790;SDS011;33547;49.044;1.156;2023-03-01T04:40:34;20.13;;;17.00;;
47790;SDS011;33547;49.044;1.156;2023-03-01T04:43:00;22.45;;;18.42;;
47790;SDS011;33547;49.044;1.156;2023-03-01T04:45:27;29.02;;;19.35;;
47790;SDS011;33547;49.044;1.156;2023-03-01T04:47:53;22.33;;;18.15;;
47790;SDS011;33547;49.044;1.156;2023-03-01T04:50:19;24.45;;;18.35;;
47790;SDS011;33547;49.044;1.156;2023-03-01T04:52:48;23.63;;;18.00;;
47790;SDS011;33547;49.044;1.156;2023-03-01T04:55:15;21.27;;;17.35;;
47790;SDS011;33547;49.044;1.156;2023-03-01T04:57:40;21.58;;;17.20;;
47790;SDS011;33547;49.044;1.156;2023-03-01T05:00:07;20.23;;;16.25;;
47790;SDS011;33547;49.044;1.156;2023-03-01T05:05:21;22.52;;;16.05;;
47790;SDS011;33547;49.044;1.156;2023-03-01T05:07:56;19.73;;;14.90;;
47790;SDS011;33547;49.044;1.156;2023-03-01T05:10:23;21.42;;;16.10;;
47790;SDS011;33547;49.044;1.156;2023-03-01T05:12:50;16.85;;;14.07;;
47790;SDS011;33547;49.044;1.156;2023-03-01T05:15:17;18.05;;;15.05;;
47790;SDS011;33547;49.044;1.156;2023-03-01T05:17:43;22.10;;;15.77;;
47790;SDS011;33547;49.044;1.156;2023-03-01T05:20:09;32.50;;;18.63;;
47790;SDS011;33547;49.044;1.156;2023-03-01T05:22:35;18.27;;;15.27;;
47790;SDS011;33547;49.044;1.156;2023-03-01T05:25:01;29.27;;;17.40;;
47790;SDS011;33547;49.044;1.156;2023-03-01T05:27:28;26.38;;;18.23;;
47790;SDS011;33547;49.044;1.156;2023-03-01T05:29:54;32.75;;;20.45;;
47790;SDS011;33547;49.044;1.156;2023-03-01T05:32:20;55.97;;;30.98;;
47790;SDS011;33547;49.044;1.156;2023-03-01T05:34:46;59.47;;;31.98;;
47790;SDS011;33547;49.044;1.156;2023-03-01T05:37:12;67.13;;;37.97;;
47790;SDS011;33547;49.044;1.156;2023-03-01T05:39:38;62.53;;;34.47;;
47790;SDS011;33547;49.044;1.156;2023-03-01T05:42:04;60.53;;;34.72;;
47790;SDS011;33547;49.044;1.156;2023-03-01T05:44:30;87.88;;;49.03;;
47790;SDS011;33547;49.044;1.156;2023-03-01T05:46:56;81.03;;;46.00;;
47790;SDS011;33547;49.044;1.156;2023-03-01T05:49:22;77.05;;;43.83;;
47790;SDS011;33547;49.044;1.156;2023-03-01T05:51:51;71.68;;;41.70;;
47790;SDS011;33547;49.044;1.156;2023-03-01T05:54:18;62.90;;;37.15;;
47790;SDS011;33547;49.044;1.156;2023-03-01T05:56:45;53.70;;;32.20;;
47790;SDS011;33547;49.044;1.156;2023-03-01T05:59:11;42.65;;;26.48;;
47790;SDS011;33547;49.044;1.156;2023-03-01T06:01:38;37.00;;;24.50;;
47790;SDS011;33547;49.044;1.156;2023-03-01T06:04:04;40.08;;;26.33;;
47790;SDS011;33547;49.044;1.156;2023-03-01T06:06:33;36.20;;;24.58;;
47790;SDS011;33547;49.044;1.156;2023-03-01T06:09:02;36.97;;;24.23;;
47790;SDS011;33547;49.044;1.156;2023-03-01T06:11:28;34.63;;;23.58;;
47790;SDS011;33547;49.044;1.156;2023-03-01T06:13:54;33.28;;;23.10;;
47790;SDS011;33547;49.044;1.156;2023-03-01T06:16:19;38.45;;;23.42;;
47790;SDS011;33547;49.044;1.156;2023-03-01T06:18:45;32.42;;;21.17;;
47790;SDS011;33547;49.044;1.156;2023-03-01T06:21:10;34.55;;;23.40;;
47790;SDS011;33547;49.044;1.156;2023-03-01T06:23:36;29.90;;;21.08;;
47790;SDS011;33547;49.044;1.156;2023-03-01T06:26:04;26.88;;;19.65;;
47790;SDS011;33547;49.044;1.156;2023-03-01T06:28:31;24.33;;;20.00;;
47790;SDS011;33547;49.044;1.156;2023-03-01T06:30:57;25.85;;;20.30;;
47790;SDS011;33547;49.044;1.156;2023-03-01T06:33:23;23.23;;;19.23;;
47790;SDS011;33547;49.044;1.156;2023-03-01T06:35:49;25.33;;;19.55;;
47790;SDS011;33547;49.044;1.156;2023-03-01T06:38:15;25.52;;;18.70;;
47790;SDS011;33547;49.044;1.156;2023-03-01T06:40:43;22.88;;;17.15;;
47790;SDS011;33547;49.044;1.156;2023-03-01T06:43:09;23.35;;;18.08;;
47790;SDS011;33547;49.044;1.156;2023-03-01T06:45:36;23.02;;;18.67;;
47790;SDS011;33547;49.044;1.156;2023-03-01T06:48:05;23.75;;;17.65;;
47790;SDS011;33547;49.044;1.156;2023-03-01T06:50:32;22.60;;;17.40;;
47790;SDS011;33547;49.044;1.156;2023-03-01T06:52:59;24.80;;;19.23;;
47790;SDS011;33547;49.044;1.156;2023-03-01T06:55:25;21.77;;;18.00;;
47790;SDS011;33547;49.044;1.156;2023-03-01T06:57:54;24.30;;;18.38;;
47790;SDS011;33547;49.044;1.156;2023-03-01T07:00:21;24.10;;;19.63;;
47790;SDS011;33547;49.044;1.156;2023-03-01T07:02:47;23.50;;;18.85;;
47790;SDS011;33547;49.044;1.156;2023-03-01T07:05:13;26.63;;;18.30;;
47790;SDS011;33547;49.044;1.156;2023-03-01T07:07:39;29.42;;;21.58;;
47790;SDS011;33547;49.044;1.156;2023-03-01T07:10:04;31.17;;;20.80;;
47790;SDS011;33547;49.044;1.156;2023-03-01T07:12:31;27.98;;;20.20;;
47790;SDS011;33547;49.044;1.156;2023-03-01T07:14:56;29.25;;;20.50;;
47790;SDS011;33547;49.044;1.156;2023-03-01T07:17:22;25.98;;;20.63;;
47790;SDS011;33547;49.044;1.156;2023-03-01T07:19:48;26.02;;;19.95;;
47790;SDS011;33547;49.044;1.156;2023-03-01T07:22:13;27.52;;;19.88;;
47790;SDS011;33547;49.044;1.156;2023-03-01T07:24:40;24.50;;;18.60;;
47790;SDS011;33547;49.044;1.156;2023-03-01T07:27:06;24.38;;;18.20;;
47790;SDS011;33547;49.044;1.156;2023-03-01T07:29:32;22.20;;;17.60;;
47790;SDS011;33547;49.044;1.156;2023-03-01T07:31:57;23.25;;;17.20;;
47790;SDS011;33547;49.044;1.156;2023-03-01T07:34:23;20.52;;;18.33;;
47790;SDS011;33547;49.044;1.156;2023-03-01T07:36:49;22.08;;;17.23;;
47790;SDS011;33547;49.044;1.156;2023-03-01T07:39:14;20.08;;;16.77;;
47790;SDS011;33547;49.044;1.156;2023-03-01T07:41:40;21.13;;;16.77;;
47790;SDS011;33547;49.044;1.156;2023-03-01T07:44:06;21.15;;;17.63;;
47790;SDS011;33547;49.044;1.156;2023-03-01T07:46:31;18.48;;;16.50;;
47790;SDS011;33547;49.044;1.156;2023-03-01T07:48:57;18.65;;;16.55;;
47790;SDS011;33547;49.044;1.156;2023-03-01T07:51:23;19.52;;;17.42;;
47790;SDS011;33547;49.044;1.156;2023-03-01T07:53:49;20.92;;;17.90;;
47790;SDS011;33547;49.044;1.156;2023-03-01T07:56:15;19.50;;;17.20;;
47790;SDS011;33547;49.044;1.156;2023-03-01T07:58:43;21.85;;;16.70;;
47790;SDS011;33547;49.044;1.156;2023-03-01T08:01:10;18.80;;;16.48;;
47790;SDS011;33547;49.044;1.156;2023-03-01T08:03:38;18.45;;;16.55;;
47790;SDS011;33547;49.044;1.156;2023-03-01T08:06:05;18.83;;;16.85;;
47790;SDS011;33547;49.044;1.156;2023-03-01T08:08:33;20.23;;;18.05;;
47790;SDS011;33547;49.044;1.156;2023-03-01T08:11:00;19.48;;;17.20;;
47790;SDS011;33547;49.044;1.156;2023-03-01T08:13:26;19.00;;;17.00;;
47790;SDS011;33547;49.044;1.156;2023-03-01T08:15:53;20.20;;;16.88;;
47790;SDS011;33547;49.044;1.156;2023-03-01T08:18:19;18.42;;;16.63;;
47790;SDS011;33547;49.044;1.156;2023-03-01T08:20:46;18.15;;;16.25;;
47790;SDS011;33547;49.044;1.156;2023-03-01T08:23:11;17.95;;;16.08;;
47790;SDS011;33547;49.044;1.156;2023-03-01T08:25:37;17.58;;;15.85;;
47790;SDS011;33547;49.044;1.156;2023-03-01T08:28:04;18.13;;;16.33;;
47790;SDS011;33547;49.044;1.156;2023-03-01T08:30:30;19.20;;;17.13;;
47790;SDS011;33547;49.044;1.156;2023-03-01T08:32:56;17.23;;;15.63;;
47790;SDS011;33547;49.044;1.156;2023-03-01T08:35:22;16.63;;;14.98;;
47790;SDS011;33547;49.044;1.156;2023-03-01T08:37:48;17.67;;;15.75;;
47790;SDS011;33547;49.044;1.156;2023-03-01T08:40:13;17.70;;;15.90;;
47790;SDS011;33547;49.044;1.156;2023-03-01T08:42:42;22.85;;;16.63;;
47790;SDS011;33547;49.044;1.156;2023-03-01T08:45:08;18.00;;;16.25;;
47790;SDS011;33547;49.044;1.156;2023-03-01T08:47:34;18.38;;;16.45;;
47790;SDS011;33547;49.044;1.156;2023-03-01T08:50:00;17.85;;;15.95;;
47790;SDS011;33547;49.044;1.156;2023-03-01T08:52:26;17.42;;;15.73;;
47790;SDS011;33547;49.044;1.156;2023-03-01T08:54:52;17.38;;;15.70;;
47790;SDS011;33547;49.044;1.156;2023-03-01T08:57:18;17.83;;;16.00;;
47790;SDS011;33547;49.044;1.156;2023-03-01T08:59:44;18.08;;;15.02;;
47790;SDS011;33547;49.044;1.156;2023-03-01T09:02:11;17.83;;;15.93;;
47790;SDS011;33547;49.044;1.156;2023-03-01T09:04:37;19.35;;;15.27;;
47790;SDS011;33547;49.044;1.156;2023-03-01T09:07:03;16.90;;;15.10;;
47790;SDS011;33547;49.044;1.156;2023-03-01T09:09:29;18.20;;;15.90;;
47790;SDS011;33547;49.044;1.156;2023-03-01T09:11:55;16.65;;;14.98;;
47790;SDS011;33547;49.044;1.156;2023-03-01T09:14:20;16.35;;;14.75;;
47790;SDS011;33547;49.044;1.156;2023-03-01T09:16:46;16.88;;;14.90;;
47790;SDS011;33547;49.044;1.156;2023-03-01T09:19:12;18.27;;;15.13;;
47790;SDS011;33547;49.044;1.156;2023-03-01T09:21:38;16.33;;;14.63;;
47790;SDS011;33547;49.044;1.156;2023-03-01T09:24:04;16.10;;;14.55;;
47790;SDS011;33547;49.044;1.156;2023-03-01T09:26:30;15.80;;;14.30;;
47790;SDS011;33547;49.044;1.156;2023-03-01T09:28:56;15.07;;;13.65;;
47790;SDS011;33547;49.044;1.156;2023-03-01T09:31:22;16.90;;;14.52;;
47790;SDS011;33547;49.044;1.156;2023-03-01T09:33:49;15.90;;;14.40;;
47790;SDS011;33547;49.044;1.156;2023-03-01T09:36:21;15.40;;;13.90;;
47790;SDS011;33547;49.044;1.156;2023-03-01T09:38:48;13.98;;;12.77;;
47790;SDS011;33547;49.044;1.156;2023-03-01T09:43:52;14.68;;;13.18;;
47790;SDS011;33547;49.044;1.156;2023-03-01T09:46:24;14.65;;;12.30;;
47790;SDS011;33547;49.044;1.156;2023-03-01T09:48:53;15.48;;;13.85;;
47790;SDS011;33547;49.044;1.156;2023-03-01T09:51:32;13.82;;;12.43;;
47790;SDS011;33547;49.044;1.156;2023-03-01T09:54:03;13.70;;;12.40;;
47790;SDS011;33547;49.044;1.156;2023-03-01T09:56:34;14.95;;;13.45;;
47790;SDS011;33547;49.044;1.156;2023-03-01T10:01:41;13.60;;;12.40;;
47790;SDS011;33547;49.044;1.156;2023-03-01T10:04:29;12.27;;;11.10;;
47790;SDS011;33547;49.044;1.156;2023-03-01T10:09:55;12.00;;;10.90;;
47790;SDS011;33547;49.044;1.156;2023-03-01T10:12:23;11.60;;;10.48;;
47790;SDS011;33547;49.044;1.156;2023-03-01T10:15:14;11.32;;;10.35;;
47790;SDS011;33547;49.044;1.156;2023-03-01T10:17:47;9.68;;;8.77;;
47790;SDS011;33547;49.044;1.156;2023-03-01T10:22:48;9.70;;;8.77;;
47790;SDS011;33547;49.044;1.156;2023-03-01T10:30:56;8.30;;;7.40;;
47790;SDS011;33547;49.044;1.156;2023-03-01T10:33:25;8.93;;;7.80;;
47790;SDS011;33547;49.044;1.156;2023-03-01T10:35:54;8.80;;;8.00;;
47790;SDS011;33547;49.044;1.156;2023-03-01T10:38:20;10.00;;;8.75;;
47790;SDS011;33547;49.044;1.156;2023-03-01T10:40:53;10.43;;;8.18;;
47790;SDS011;33547;49.044;1.156;2023-03-01T10:43:20;11.88;;;8.77;;
47790;SDS011;33547;49.044;1.156;2023-03-01T10:45:47;10.57;;;8.43;;
47790;SDS011;33547;49.044;1.156;2023-03-01T10:48:23;9.98;;;9.07;;
47790;SDS011;33547;49.044;1.156;2023-03-01T10:51:14;10.18;;;9.00;;
47790;SDS011;33547;49.044;1.156;2023-03-01T10:53:42;9.82;;;8.93;;
47790;SDS011;33547;49.044;1.156;2023-03-01T10:56:14;10.20;;;9.35;;
47790;SDS011;33547;49.044;1.156;2023-03-01T10:58:41;9.88;;;8.73;;
47790;SDS011;33547;49.044;1.156;2023-03-01T11:01:25;10.18;;;9.18;;
47790;SDS011;33547;49.044;1.156;2023-03-01T11:04:12;10.45;;;9.45;;
47790;SDS011;33547;49.044;1.156;2023-03-01T11:06:39;9.25;;;7.95;;
47790;SDS011;33547;49.044;1.156;2023-03-01T11:09:30;9.32;;;8.45;;
47790;SDS011;33547;49.044;1.156;2023-03-01T11:11:57;9.85;;;8.95;;
47790;SDS011;33547;49.044;1.156;2023-03-01T11:14:38;9.75;;;8.68;;
47790;SDS011;33547;49.044;1.156;2023-03-01T11:22:37;11.55;;;8.85;;
47790;SDS011;33547;49.044;1.156;2023-03-01T11:25:33;9.70;;;8.80;;
47790;SDS011;33547;49.044;1.156;2023-03-01T11:28:02;10.23;;;8.57;;
47790;SDS011;33547;49.044;1.156;2023-03-01T11:30:38;9.43;;;8.52;;
47790;SDS011;33547;49.044;1.156;2023-03-01T11:38:43;9.65;;;8.68;;
47790;SDS011;33547;49.044;1.156;2023-03-01T11:41:23;10.40;;;8.82;;
47790;SDS011;33547;49.044;1.156;2023-03-01T11:44:00;10.18;;;9.27;;
47790;SDS011;33547;49.044;1.156;2023-03-01T12:00:43;10.95;;;9.98;;
47790;SDS011;33547;49.044;1.156;2023-03-01T12:11:19;11.48;;;10.35;;
47790;SDS011;33547;49.044;1.156;2023-03-01T12:20:58;11.85;;;10.75;;
47790;SDS011;33547;49.044;1.156;2023-03-01T12:28:42;12.23;;;10.80;;
47790;SDS011;33547;49.044;1.156;2023-03-01T12:34:08;12.10;;;11.00;;
47790;SDS011;33547;49.044;1.156;2023-03-01T12:42:02;13.02;;;11.73;;
47790;SDS011;33547;49.044;1.156;2023-03-01T12:44:45;13.48;;;12.07;;
47790;SDS011;33547;49.044;1.156;2023-03-01T12:49:56;13.85;;;12.45;;
47790;SDS011;33547;49.044;1.156;2023-03-01T12:55:06;13.40;;;11.32;;
47790;SDS011;33547;49.044;1.156;2023-03-01T12:57:50;14.13;;;11.00;;
47790;SDS011;33547;49.044;1.156;2023-03-01T13:00:48;12.27;;;11.13;;
47790;SDS011;33547;49.044;1.156;2023-03-01T13:11:19;13.55;;;11.63;;
47790;SDS011;33547;49.044;1.156;2023-03-01T13:13:46;14.07;;;11.23;;
47790;SDS011;33547;49.044;1.156;2023-03-01T13:19:08;13.25;;;11.98;;
47790;SDS011;33547;49.044;1.156;2023-03-01T13:21:40;13.20;;;11.98;;
47790;SDS011;33547;49.044;1.156;2023-03-01T13:24:23;13.32;;;12.13;;
47790;SDS011;33547;49.044;1.156;2023-03-01T13:29:32;11.43;;;10.32;;
47790;SDS011;33547;49.044;1.156;2023-03-01T13:32:28;12.57;;;11.23;;
47790;SDS011;33547;49.044;1.156;2023-03-01T13:34:58;13.02;;;11.73;;
47790;SDS011;33547;49.044;1.156;2023-03-01T13:37:33;13.18;;;11.88;;
47790;SDS011;33547;49.044;1.156;2023-03-01T13:40:02;12.43;;;11.13;;
47790;SDS011;33547;49.044;1.156;2023-03-01T13:42:44;12.30;;;11.00;;
47790;SDS011;33547;49.044;1.156;2023-03-01T13:45:24;13.88;;;11.13;;
47790;SDS011;33547;49.044;1.156;2023-03-01T13:48:02;11.50;;;10.30;;
47790;SDS011;33547;49.044;1.156;2023-03-01T13:50:47;14.82;;;11.15;;
47790;SDS011;33547;49.044;1.156;2023-03-01T13:53:26;10.82;;;9.40;;
47790;SDS011;33547;49.044;1.156;2023-03-01T13:56:02;14.90;;;10.85;;
47790;SDS011;33547;49.044;1.156;2023-03-01T13:58:50;12.55;;;11.30;;
47790;SDS011;33547;49.044;1.156;2023-03-01T14:01:28;13.23;;;10.25;;
47790;SDS011;33547;49.044;1.156;2023-03-01T14:03:58;11.20;;;10.10;;
47790;SDS011;33547;49.044;1.156;2023-03-01T14:06:25;12.30;;;10.98;;
47790;SDS011;33547;49.044;1.156;2023-03-01T14:11:53;11.13;;;10.05;;
47790;SDS011;33547;49.044;1.156;2023-03-01T14:14:56;12.48;;;11.18;;
47790;SDS011;33547;49.044;1.156;2023-03-01T14:20:24;11.80;;;10.38;;
47790;SDS011;33547;49.044;1.156;2023-03-01T14:22:53;11.40;;;10.40;;
47790;SDS011;33547;49.044;1.156;2023-03-01T14:25:23;11.95;;;10.75;;
47790;SDS011;33547;49.044;1.156;2023-03-01T14:27:55;13.00;;;10.70;;
47790;SDS011;33547;49.044;1.156;2023-03-01T14:32:54;12.70;;;10.50;;
47790;SDS011;33547;49.044;1.156;2023-03-01T14:35:23;11.18;;;9.98;;
47790;SDS011;33547;49.044;1.156;2023-03-01T14:37:51;11.70;;;10.50;;
47790;SDS011;33547;49.044;1.156;2023-03-01T14:42:58;11.13;;;10.02;;
47790;SDS011;33547;49.044;1.156;2023-03-01T14:45:27;11.43;;;10.32;;
47790;SDS011;33547;49.044;1.156;2023-03-01T14:47:54;11.65;;;9.80;;
47790;SDS011;33547;49.044;1.156;2023-03-01T14:50:44;12.05;;;10.77;;
47790;SDS011;33547;49.044;1.156;2023-03-01T14:53:20;11.52;;;10.32;;
47790;SDS011;33547;49.044;1.156;2023-03-01T14:55:52;11.55;;;10.23;;
47790;SDS011;33547;49.044;1.156;2023-03-01T14:58:20;12.30;;;10.60;;
47790;SDS011;33547;49.044;1.156;2023-03-01T15:00:56;10.82;;;9.82;;
47790;SDS011;33547;49.044;1.156;2023-03-01T15:03:31;13.05;;;11.73;;
47790;SDS011;33547;49.044;1.156;2023-03-01T15:06:00;13.30;;;11.23;;
47790;SDS011;33547;49.044;1.156;2023-03-01T15:08:28;11.75;;;10.32;;
47790;SDS011;33547;49.044;1.156;2023-03-01T15:13:30;11.07;;;9.63;;
47790;SDS011;33547;49.044;1.156;2023-03-01T15:16:16;12.70;;;10.52;;
47790;SDS011;33547;49.044;1.156;2023-03-01T15:18:44;11.85;;;10.25;;
47790;SDS011;33547;49.044;1.156;2023-03-01T15:21:25;12.20;;;10.90;;
47790;SDS011;33547;49.044;1.156;2023-03-01T15:24:16;12.30;;;11.05;;
47790;SDS011;33547;49.044;1.156;2023-03-01T15:29:20;12.98;;;11.65;;
47790;SDS011;33547;49.044;1.156;2023-03-01T15:32:23;12.38;;;11.10;;
47790;SDS011;33547;49.044;1.156;2023-03-01T15:34:50;11.10;;;9.98;;
47790;SDS011;33547;49.044;1.156;2023-03-01T15:38:01;12.15;;;10.57;;
47790;SDS011;33547;49.044;1.156;2023-03-01T15:40:19;13.32;;;12.02;;
47790;SDS011;33547;49.044;1.156;2023-03-01T15:42:57;13.27;;;11.88;;
47790;SDS011;33547;49.044;1.156;2023-03-01T15:45:27;13.23;;;11.95;;
47790;SDS011;33547;49.044;1.156;2023-03-01T15:47:57;12.38;;;11.10;;
47790;SDS011;33547;49.044;1.156;2023-03-01T15:50:33;12.68;;;11.45;;
47790;SDS011;33547;49.044;1.156;2023-03-01T15:53:06;13.55;;;12.15;;
47790;SDS011;33547;49.044;1.156;2023-03-01T15:55:37;12.52;;;11.27;;
47790;SDS011;33547;49.044;1.156;2023-03-01T16:00:38;13.75;;;11.27;;
47790;SDS011;33547;49.044;1.156;2023-03-01T16:03:04;12.07;;;10.85;;
47790;SDS011;33547;49.044;1.156;2023-03-01T16:05:32;12.50;;;11.23;;
47790;SDS011;33547;49.044;1.156;2023-03-01T16:07:59;13.88;;;12.48;;
47790;SDS011;33547;49.044;1.156;2023-03-01T16:10:25;13.13;;;11.82;;
47790;SDS011;33547;49.044;1.156;2023-03-01T16:12:52;13.95;;;11.43;;
47790;SDS011;33547;49.044;1.156;2023-03-01T16:17:49;14.38;;;11.40;;
47790;SDS011;33547;49.044;1.156;2023-03-01T16:20:15;13.35;;;11.27;;
47790;SDS011;33547;49.044;1.156;2023-03-01T16:22:42;13.20;;;11.20;;
47790;SDS011;33547;49.044;1.156;2023-03-01T16:25:18;13.93;;;11.82;;
47790;SDS011;33547;49.044;1.156;2023-03-01T16:27:45;12.25;;;11.05;;
47790;SDS011;33547;49.044;1.156;2023-03-01T16:30:12;15.27;;;10.73;;
47790;SDS011;33547;49.044;1.156;2023-03-01T16:32:39;12.70;;;11.35;;
47790;SDS011;33547;49.044;1.156;2023-03-01T16:35:06;13.43;;;11.18;;
47790;SDS011;33547;49.044;1.156;2023-03-01T16:37:34;12.95;;;11.27;;
47790;SDS011;33547;49.044;1.156;2023-03-01T16:40:01;12.00;;;10.80;;